createdAt,value
2018-05-11T00:00:49.387Z,83.98
2018-05-11T00:01:49.372Z,83.41
2018-05-11T00:02:49.364Z,83.89
2018-05-11T00:03:49.077Z,84.08
2018-05-11T00:04:49.321Z,83.41
2018-05-11T00:05:49.048Z,83.51
2018-05-11T00:06:49.495Z,83.61
2018-05-11T00:07:49.473Z,83.61
2018-05-11T00:08:49.002Z,82.99
2018-05-11T00:09:48.977Z,83.18
2018-05-11T00:10:49.224Z,83.28
2018-05-11T00:11:49.208Z,82.99
2018-05-11T00:12:49.194Z,83.47
2018-05-11T00:13:48.912Z,83.56
2018-05-11T00:14:48.905Z,82.9
2018-05-11T00:15:49.147Z,83.09
2018-05-11T00:16:49.142Z,83.28
2018-05-11T00:17:49.114Z,83.18
2018-05-11T00:18:49.095Z,83.37
2018-05-11T00:19:48.815Z,82.9
2018-05-11T00:20:49.070Z,82.9
2018-05-11T00:21:49.049Z,82.99
2018-05-11T00:22:48.770Z,82.8
2018-05-11T00:23:48.748Z,82.99
2018-05-11T00:24:49.009Z,82.99
2018-05-11T00:25:48.717Z,82.99
2018-05-11T00:26:48.699Z,83.18
2018-05-11T00:27:48.956Z,82.8
2018-05-11T00:28:48.668Z,82.32
2018-05-11T00:29:48.920Z,82.14
2018-05-11T00:30:48.634Z,82.04
2018-05-11T00:31:48.890Z,82.14
2018-05-11T00:32:48.884Z,82.04
2018-05-11T00:33:48.856Z,82.04
2018-05-11T00:34:48.569Z,82.14
2018-05-11T00:35:48.823Z,82.42
2018-05-11T00:36:48.819Z,82.14
2018-05-11T00:37:48.521Z,81.85
2018-05-11T00:38:48.768Z,81.18
2018-05-11T00:39:48.758Z,81.09
2018-05-11T00:40:48.737Z,81.37
2018-05-11T00:41:48.723Z,81.18
2018-05-11T00:42:48.709Z,81.18
2018-05-11T00:43:48.421Z,80.52
2018-05-11T00:44:48.672Z,80.71
2018-05-11T00:45:48.389Z,80.8
2018-05-11T00:46:48.644Z,80.61
2018-05-11T00:47:48.356Z,79.94
2018-05-11T00:48:48.604Z,79.19
2018-05-11T00:49:48.589Z,78.71
2018-05-11T00:50:48.311Z,76.71
2018-05-11T00:51:48.558Z,77
2018-05-11T00:52:48.543Z,76.71
2018-05-11T00:53:48.524Z,76.81
2018-05-11T00:54:48.507Z,76.71
2018-05-11T00:55:48.227Z,76.81
2018-05-11T00:56:48.479Z,76.81
2018-05-11T00:57:48.455Z,76.14
2018-05-11T00:58:48.451Z,76.33
2018-05-11T00:59:48.423Z,75.67
2018-05-11T01:00:48.410Z,76.14
2018-05-11T01:01:48.395Z,75.76
2018-05-11T01:02:48.373Z,75.85
2018-05-11T01:03:48.358Z,76.23
2018-05-11T01:04:48.075Z,76.33
2018-05-11T01:05:48.063Z,76.61
2018-05-11T01:06:48.309Z,76.14
2018-05-11T01:07:48.029Z,76.33
2018-05-11T01:08:48.010Z,76.33
2018-05-11T01:09:48.265Z,76.23
2018-05-11T01:10:48.250Z,76.33
2018-05-11T01:11:48.244Z,76.61
2018-05-11T01:12:48.278Z,76.52
2018-05-11T01:13:47.926Z,75.95
2018-05-11T01:14:47.911Z,76.04
2018-05-11T01:15:47.896Z,75.95
2018-05-11T01:16:47.879Z,75.76
2018-05-11T01:17:47.860Z,75.19
2018-05-11T01:18:47.843Z,74.71
2018-05-11T01:19:48.091Z,74.52
2018-05-11T01:20:47.809Z,74.48
2018-05-11T01:21:48.058Z,74.14
2018-05-11T01:22:47.778Z,74.33
2018-05-11T01:23:48.023Z,74.24
2018-05-11T01:24:47.742Z,74.24
2018-05-11T01:25:47.991Z,74.04
2018-05-11T01:26:47.713Z,74.24
2018-05-11T01:27:47.963Z,74.24
2018-05-11T01:28:47.677Z,73.85
2018-05-11T01:29:47.660Z,73.76
2018-05-11T01:30:47.907Z,73.95
2018-05-11T01:31:47.891Z,73.66
2018-05-11T01:32:47.875Z,73.28
2018-05-11T01:33:47.861Z,73.1
2018-05-11T01:34:47.586Z,72.71
2018-05-11T01:35:47.826Z,72.52
2018-05-11T01:36:47.812Z,72.05
2018-05-11T01:37:47.528Z,71.19
2018-05-11T01:38:47.510Z,70.81
2018-05-11T01:39:47.785Z,70.62
2018-05-11T01:40:47.750Z,70.05
2018-05-11T01:41:47.464Z,69.76
2018-05-11T01:42:47.715Z,69.38
2018-05-11T01:43:47.426Z,69.48
2018-05-11T01:44:47.676Z,69.67
2018-05-11T01:45:47.659Z,68.71
2018-05-11T01:46:47.641Z,69.29
2018-05-11T01:47:47.627Z,68.71
2018-05-11T01:48:47.690Z,68.71
2018-05-11T01:49:47.594Z,69
2018-05-11T01:50:47.576Z,68.33
2018-05-11T01:51:47.303Z,68.52
2018-05-11T01:52:47.290Z,68.43
2018-05-11T01:53:47.263Z,68.81
2018-05-11T01:54:47.513Z,68.71
2018-05-11T01:55:47.231Z,68.52
2018-05-11T01:56:47.220Z,68.33
2018-05-11T01:57:47.195Z,68.43
2018-05-11T01:58:47.455Z,68.43
2018-05-11T01:59:47.163Z,69.1
2018-05-11T02:00:47.420Z,69
2018-05-11T02:01:47.409Z,68.43
2018-05-11T02:02:47.377Z,68.43
2018-05-11T02:03:47.095Z,68.62
2018-05-11T02:04:47.351Z,68.52
2018-05-11T02:05:47.065Z,68.15
2018-05-11T02:06:47.251Z,68.43
2018-05-11T02:07:47.036Z,67.92
2018-05-11T02:08:47.275Z,68.01
2018-05-11T02:09:47.261Z,67.63
2018-05-11T02:10:47.244Z,67.82
2018-05-11T02:11:47.227Z,67.35
2018-05-11T02:12:47.219Z,67.54
2018-05-11T02:13:47.193Z,67.25
2018-05-11T02:14:47.181Z,68.01
2018-05-11T02:15:47.163Z,67.92
2018-05-11T02:16:47.150Z,67.92
2018-05-11T02:17:47.128Z,68.21
2018-05-11T02:18:47.115Z,68.4
2018-05-11T02:19:47.095Z,68.49
2018-05-11T02:20:47.080Z,68.4
2018-05-11T02:21:47.063Z,68.4
2018-05-11T02:22:47.046Z,68.49
2018-05-11T02:23:46.766Z,69.25
2018-05-11T02:24:47.016Z,68.68
2018-05-11T02:25:46.780Z,68.68
2018-05-11T02:26:46.984Z,68.68
2018-05-11T02:27:46.964Z,68.77
2018-05-11T02:28:46.681Z,69.06
2018-05-11T02:29:46.666Z,68.87
2018-05-11T02:30:46.912Z,68.01
2018-05-11T02:31:46.630Z,68.11
2018-05-11T02:32:46.612Z,68.4
2018-05-11T02:33:46.595Z,68.87
2018-05-11T02:34:46.580Z,68.3
2018-05-11T02:35:46.561Z,68.59
2018-05-11T02:36:46.819Z,68.49
2018-05-11T02:37:46.536Z,68.49
2018-05-11T02:38:46.778Z,68.59
2018-05-11T02:39:46.503Z,69.15
2018-05-11T02:40:46.745Z,68.68
2018-05-11T02:41:46.732Z,69.54
2018-05-11T02:42:46.715Z,69.54
2018-05-11T02:43:46.694Z,69.44
2018-05-11T02:44:46.680Z,69.44
2018-05-11T02:45:46.659Z,69.92
2018-05-11T02:46:46.381Z,69.54
2018-05-11T02:47:46.638Z,70.58
2018-05-11T02:48:46.611Z,70.68
2018-05-11T02:49:46.600Z,70.64
2018-05-11T02:50:46.876Z,70.54
2018-05-11T02:51:46.559Z,70.17
2018-05-11T02:52:46.544Z,70.45
2018-05-11T02:53:46.531Z,70.07
2018-05-11T02:54:46.518Z,69.88
2018-05-11T02:55:46.224Z,69.5
2018-05-11T02:56:46.271Z,69.88
2018-05-11T02:57:46.456Z,70.07
2018-05-11T02:58:46.176Z,69.6
2018-05-11T02:59:46.429Z,69.21
2018-05-11T03:00:46.140Z,69.31
2018-05-11T03:01:46.134Z,69.5
2018-05-11T03:02:46.381Z,69.21
2018-05-11T03:03:46.363Z,68.93
2018-05-11T03:04:46.338Z,68.74
2018-05-11T03:05:46.053Z,68.93
2018-05-11T03:06:46.035Z,68.65
2018-05-11T03:07:46.289Z,68.65
2018-05-11T03:08:46.266Z,68.55
2018-05-11T03:09:45.983Z,68.27
2018-05-11T03:10:46.236Z,68.46
2018-05-11T03:11:46.233Z,68.07
2018-05-11T03:12:46.200Z,68.46
2018-05-11T03:13:46.185Z,67.88
2018-05-11T03:14:45.905Z,67.98
2018-05-11T03:15:45.887Z,67.98
2018-05-11T03:16:46.138Z,67.98
2018-05-11T03:17:46.110Z,67.41
2018-05-11T03:18:45.994Z,67.32
2018-05-11T03:19:45.810Z,67.41
2018-05-11T03:20:45.800Z,67.79
2018-05-11T03:21:46.043Z,67.69
2018-05-11T03:22:46.023Z,67.5
2018-05-11T03:23:46.010Z,67.69
2018-05-11T03:24:45.725Z,67.88
2018-05-11T03:25:45.970Z,67.6
2018-05-11T03:26:45.961Z,68.17
2018-05-11T03:27:45.938Z,67.98
2018-05-11T03:28:45.923Z,68.17
2018-05-11T03:29:45.644Z,68.27
2018-05-11T03:30:45.890Z,68.27
2018-05-11T03:31:45.612Z,68.07
2018-05-11T03:32:45.856Z,68.07
2018-05-11T03:33:45.571Z,68.36
2018-05-11T03:34:45.560Z,68.27
2018-05-11T03:35:45.535Z,68.46
2018-05-11T03:36:45.783Z,67.98
2018-05-11T03:37:45.502Z,68.27
2018-05-11T03:38:45.484Z,68.27
2018-05-11T03:39:45.470Z,68.65
2018-05-11T03:40:45.711Z,68.55
2018-05-11T03:41:45.701Z,68.46
2018-05-11T03:42:45.416Z,68.74
2018-05-11T03:43:45.662Z,68.84
2018-05-11T03:44:45.383Z,68.55
2018-05-11T03:45:45.635Z,68.27
2018-05-11T03:46:45.348Z,67.98
2018-05-11T03:47:45.635Z,67.98
2018-05-11T03:48:45.592Z,67.88
2018-05-11T03:49:45.564Z,67.03
2018-05-11T03:50:45.540Z,67.03
2018-05-11T03:51:45.267Z,67.03
2018-05-11T03:52:45.507Z,67.32
2018-05-11T03:53:45.491Z,67.22
2018-05-11T03:54:45.486Z,67.32
2018-05-11T03:55:45.190Z,66.74
2018-05-11T03:56:45.437Z,66.94
2018-05-11T03:57:45.420Z,66.84
2018-05-11T03:58:45.416Z,66.94
2018-05-11T03:59:45.399Z,66.55
2018-05-11T04:00:45.107Z,66.08
2018-05-11T04:01:45.090Z,66.46
2018-05-11T04:02:45.071Z,65.99
2018-05-11T04:03:45.323Z,65.51
2018-05-11T04:04:45.304Z,65.35
2018-05-11T04:05:45.022Z,64.87
2018-05-11T04:06:45.010Z,64.78
2018-05-11T04:07:45.267Z,64.87
2018-05-11T04:08:44.978Z,64.31
2018-05-11T04:09:44.952Z,64.5
2018-05-11T04:10:45.214Z,64.21
2018-05-11T04:11:45.182Z,64.5
2018-05-11T04:12:45.164Z,63.35
2018-05-11T04:13:44.881Z,63.17
2018-05-11T04:14:44.867Z,63.45
2018-05-11T04:15:44.850Z,63.17
2018-05-11T04:16:45.097Z,63.35
2018-05-11T04:17:44.817Z,62.88
2018-05-11T04:18:44.803Z,62.02
2018-05-11T04:19:45.051Z,62.12
2018-05-11T04:20:45.165Z,61.67
2018-05-11T04:21:44.751Z,61.67
2018-05-11T04:22:45.000Z,61.96
2018-05-11T04:23:44.979Z,61.96
2018-05-11T04:24:44.697Z,61.38
2018-05-11T04:25:45.024Z,61.1
2018-05-11T04:26:44.927Z,61.58
2018-05-11T04:27:44.914Z,61.29
2018-05-11T04:28:44.928Z,61.67
2018-05-11T04:29:44.883Z,61
2018-05-11T04:30:44.862Z,60.63
2018-05-11T04:31:44.581Z,60.91
2018-05-11T04:32:44.839Z,61.38
2018-05-11T04:33:44.546Z,60.91
2018-05-11T04:34:44.797Z,60.82
2018-05-11T04:35:44.514Z,60.44
2018-05-11T04:36:44.496Z,60.44
2018-05-11T04:37:44.747Z,60.72
2018-05-11T04:38:44.467Z,60.75
2018-05-11T04:39:44.714Z,60.66
2018-05-11T04:40:44.697Z,60.85
2018-05-11T04:41:44.415Z,60.85
2018-05-11T04:42:44.662Z,61.42
2018-05-11T04:43:44.646Z,60.66
2018-05-11T04:44:44.631Z,60.94
2018-05-11T04:45:44.620Z,60.94
2018-05-11T04:46:44.597Z,61.04
2018-05-11T04:47:44.587Z,60.56
2018-05-11T04:48:44.299Z,61.13
2018-05-11T04:49:44.554Z,61.13
2018-05-11T04:50:44.537Z,61.61
2018-05-11T04:51:44.521Z,61.51
2018-05-11T04:52:44.235Z,61.42
2018-05-11T04:53:44.487Z,61.42
2018-05-11T04:54:44.475Z,60.75
2018-05-11T04:55:44.461Z,60.94
2018-05-11T04:56:44.438Z,60.75
2018-05-11T04:57:44.420Z,60.66
2018-05-11T04:58:44.414Z,60.49
2018-05-11T04:59:44.391Z,60.3
2018-05-11T05:00:44.372Z,60.08
2018-05-11T05:01:44.355Z,60.21
2018-05-11T05:02:44.343Z,60.49
2018-05-11T05:03:44.328Z,59.64
2018-05-11T05:04:44.307Z,60.11
2018-05-11T05:05:44.026Z,60.11
2018-05-11T05:06:44.276Z,59.83
2018-05-11T05:07:43.996Z,60.11
2018-05-11T05:08:44.249Z,59.83
2018-05-11T05:09:44.230Z,59.83
2018-05-11T05:10:44.213Z,60.02
2018-05-11T05:11:43.933Z,59.92
2018-05-11T05:12:44.193Z,60.59
2018-05-11T05:13:44.171Z,60.24
2018-05-11T05:14:44.154Z,60.14
2018-05-11T05:15:44.138Z,60.43
2018-05-11T05:16:44.119Z,60.62
2018-05-11T05:17:44.116Z,60.43
2018-05-11T05:18:44.086Z,60.43
2018-05-11T05:19:43.806Z,60.91
2018-05-11T05:20:44.058Z,60.62
2018-05-11T05:21:43.776Z,60.91
2018-05-11T05:22:44.025Z,61.96
2018-05-11T05:23:43.746Z,62.24
2018-05-11T05:24:43.734Z,62.15
2018-05-11T05:25:43.985Z,62.24
2018-05-11T05:26:43.963Z,62.81
2018-05-11T05:27:43.948Z,62.72
2018-05-11T05:28:43.940Z,62.62
2018-05-11T05:29:43.653Z,62.52
2018-05-11T05:30:43.907Z,62.81
2018-05-11T05:31:43.890Z,63.48
2018-05-11T05:32:43.869Z,63.29
2018-05-11T05:33:43.591Z,63.39
2018-05-11T05:34:43.574Z,63.29
2018-05-11T05:35:43.558Z,63.86
2018-05-11T05:36:43.549Z,63.57
2018-05-11T05:37:43.792Z,64.43
2018-05-11T05:38:43.512Z,64.24
2018-05-11T05:39:43.766Z,64.34
2018-05-11T05:40:43.483Z,64.34
2018-05-11T05:41:43.467Z,64.81
2018-05-11T05:42:43.733Z,64.43
2018-05-11T05:43:43.438Z,64.85
2018-05-11T05:44:43.424Z,64.85
2018-05-11T05:45:43.432Z,65.52
2018-05-11T05:46:43.397Z,65.8
2018-05-11T05:47:43.377Z,65.99
2018-05-11T05:48:43.634Z,65.52
2018-05-11T05:49:43.352Z,65.7
2018-05-11T05:50:43.598Z,65.52
2018-05-11T05:51:43.606Z,65.89
2018-05-11T05:52:43.566Z,66.09
2018-05-11T05:53:43.294Z,66.75
2018-05-11T05:54:43.271Z,66.38
2018-05-11T05:55:43.517Z,66.66
2018-05-11T05:56:43.517Z,67.42
2018-05-11T05:57:43.235Z,67.46
2018-05-11T05:58:43.478Z,67.27
2018-05-11T05:59:43.469Z,67.36
2018-05-11T06:00:43.186Z,67.27
2018-05-11T06:01:43.169Z,67.55
2018-05-11T06:02:43.153Z,67.55
2018-05-11T06:03:43.137Z,67.17
2018-05-11T06:04:43.217Z,67.55
2018-05-11T06:05:43.112Z,67.65
2018-05-11T06:06:43.097Z,68.51
2018-05-11T06:07:43.288Z,68.6
2018-05-11T06:08:43.333Z,69.17
2018-05-11T06:09:43.320Z,69.17
2018-05-11T06:10:43.067Z,68.7
2018-05-11T06:11:43.289Z,68.03
2018-05-11T06:12:43.007Z,68.88
2018-05-11T06:13:43.257Z,68.79
2018-05-11T06:14:42.984Z,68.51
2018-05-11T06:15:43.301Z,68.41
2018-05-11T06:16:42.953Z,68.6
2018-05-11T06:17:42.984Z,68.6
2018-05-11T06:18:42.920Z,68.6
2018-05-11T06:19:43.173Z,68.22
2018-05-11T06:20:43.163Z,68.06
2018-05-11T06:21:43.139Z,68.63
2018-05-11T06:22:43.127Z,68.73
2018-05-11T06:23:43.112Z,68.73
2018-05-11T06:24:42.867Z,69.78
2018-05-11T06:25:43.081Z,69.68
2018-05-11T06:26:43.086Z,69.49
2018-05-11T06:27:43.056Z,70.83
2018-05-11T06:28:43.126Z,70.73
2018-05-11T06:29:43.028Z,71.41
2018-05-11T06:30:42.753Z,70.92
2018-05-11T06:31:42.739Z,70.54
2018-05-11T06:32:42.988Z,69.87
2018-05-11T06:33:42.972Z,69.87
2018-05-11T06:34:42.958Z,69.59
2018-05-11T06:35:42.695Z,69.87
2018-05-11T06:36:42.666Z,69.78
2018-05-11T06:37:42.654Z,70.92
2018-05-11T06:38:42.904Z,71.41
2018-05-11T06:39:42.889Z,70.92
2018-05-11T06:40:43.002Z,71.21
2018-05-11T06:41:42.868Z,71.41
2018-05-11T06:42:42.585Z,70.83
2018-05-11T06:43:42.567Z,70.64
2018-05-11T06:44:42.822Z,69.68
2018-05-11T06:45:42.537Z,69.4
2018-05-11T06:46:42.789Z,68.82
2018-05-11T06:47:42.775Z,69.31
2018-05-11T06:48:42.765Z,68.82
2018-05-11T06:49:42.751Z,69.02
2018-05-11T06:50:42.745Z,69.68
2018-05-11T06:51:42.457Z,69.21
2018-05-11T06:52:42.710Z,69.31
2018-05-11T06:53:42.690Z,69.21
2018-05-11T06:54:42.678Z,69.49
2018-05-11T06:55:42.407Z,70.36
2018-05-11T06:56:42.733Z,69.4
2018-05-11T06:57:42.369Z,69.68
2018-05-11T06:58:42.621Z,69.87
2018-05-11T06:59:42.605Z,70.64
2018-05-11T07:00:42.589Z,70.67
2018-05-11T07:01:42.314Z,71.15
2018-05-11T07:02:42.305Z,71.72
2018-05-11T07:03:42.552Z,72.58
2018-05-11T07:04:42.541Z,72.78
2018-05-11T07:05:42.265Z,73.92
2018-05-11T07:06:42.244Z,74.21
2018-05-11T07:07:42.638Z,73.25
2018-05-11T07:08:42.486Z,73.25
2018-05-11T07:09:42.208Z,73.63
2018-05-11T07:10:42.462Z,73.83
2018-05-11T07:11:42.445Z,74.11
2018-05-11T07:12:42.433Z,74.02
2018-05-11T07:13:42.153Z,76.5
2018-05-11T07:14:42.140Z,77.36
2018-05-11T07:15:42.330Z,76.69
2018-05-11T07:16:42.381Z,79.08
2018-05-11T07:17:42.099Z,78.79
2018-05-11T07:18:42.086Z,78.03
2018-05-11T07:19:42.095Z,77.17
2018-05-11T07:20:42.333Z,78.16
2018-05-11T07:21:42.320Z,80.7
2018-05-11T07:22:42.310Z,80.22
2018-05-11T07:23:42.017Z,80.41
2018-05-11T07:24:42.011Z,79.75
2018-05-11T07:25:42.404Z,79.08
2018-05-11T07:26:42.258Z,79.98
2018-05-11T07:27:42.237Z,79.6
2018-05-11T07:28:42.220Z,80.13
2018-05-11T07:29:41.944Z,81.41
2018-05-11T07:30:42.200Z,81.03
2018-05-11T07:31:41.924Z,80.84
2018-05-11T07:32:42.174Z,81.79
2018-05-11T07:33:41.890Z,81.22
2018-05-11T07:34:42.149Z,80.55
2018-05-11T07:35:42.134Z,80.84
2018-05-11T07:36:42.115Z,81.89
2018-05-11T07:37:42.107Z,81.22
2018-05-11T07:38:42.093Z,81.32
2018-05-11T07:39:42.082Z,81.99
2018-05-11T07:40:42.157Z,85.62
2018-05-11T07:41:41.791Z,85.52
2018-05-11T07:42:42.043Z,85.62
2018-05-11T07:43:42.029Z,85.9
2018-05-11T07:44:42.024Z,85.81
2018-05-11T07:45:41.738Z,86.1
2018-05-11T07:46:41.993Z,86.57
2018-05-11T07:47:41.715Z,86.67
2018-05-11T07:48:41.984Z,85.71
2018-05-11T07:49:41.960Z,86.1
2018-05-11T07:50:41.945Z,88.1
2018-05-11T07:51:42.094Z,86.38
2018-05-11T07:52:41.914Z,86.38
2018-05-11T07:53:41.908Z,86.47
2018-05-11T07:54:41.895Z,86.1
2018-05-11T07:55:41.619Z,88.29
2018-05-11T07:56:41.869Z,88.68
2018-05-11T07:57:41.858Z,87.62
2018-05-11T07:58:41.577Z,85.24
2018-05-11T07:59:41.833Z,84.76
2018-05-11T08:00:41.825Z,83.33
2018-05-11T08:01:41.542Z,82.94
2018-05-11T08:02:41.528Z,87.62
2018-05-11T08:03:41.522Z,84.47
2018-05-11T08:04:41.504Z,84.95
2018-05-11T08:05:41.759Z,87
2018-05-11T08:06:41.485Z,86.38
2018-05-11T08:07:41.937Z,84.89
2018-05-11T08:08:41.459Z,87
2018-05-11T08:09:41.716Z,86.71
2018-05-11T08:10:41.699Z,86.71
2018-05-11T08:11:41.699Z,89.58
2018-05-11T08:12:41.413Z,89.48
2018-05-11T08:13:41.401Z,90.44
2018-05-11T08:14:41.660Z,91.78
2018-05-11T08:15:41.384Z,92.45
2018-05-11T08:16:41.386Z,91.44
2018-05-11T08:17:41.358Z,91.68
2018-05-11T08:18:41.610Z,91.25
2018-05-11T08:19:41.600Z,91.97
2018-05-11T08:20:41.322Z,95.7
2018-05-11T08:21:41.576Z,98.86
2018-05-11T08:22:41.589Z,99.99
2018-05-11T08:23:41.562Z,99.99
2018-05-11T08:24:41.542Z,99.99
2018-05-11T08:25:41.534Z,99.99
2018-05-11T08:26:41.338Z,99.99
2018-05-11T08:27:41.512Z,99.99
2018-05-11T08:28:41.500Z,99.99
2018-05-11T08:29:41.229Z,99.99
2018-05-11T08:30:41.484Z,99.99
2018-05-11T08:31:41.206Z,99.99
2018-05-11T08:32:41.462Z,99.99
2018-05-11T08:33:41.467Z,99.99
2018-05-11T08:34:41.443Z,99.99
2018-05-11T08:35:41.438Z,99.99
2018-05-11T08:36:41.423Z,99.99
2018-05-11T08:37:41.151Z,99.99
2018-05-11T08:38:41.406Z,99.99
2018-05-11T08:39:41.397Z,99.99
2018-05-11T08:40:41.388Z,99.99
2018-05-11T08:41:41.391Z,99.99
2018-05-11T08:42:41.372Z,99.99
2018-05-11T08:43:41.576Z,99.99
2018-05-11T08:44:41.084Z,99.99
2018-05-11T08:45:41.346Z,99.99
2018-05-11T08:46:41.345Z,99.99
2018-05-11T08:47:41.325Z,99.99
2018-05-11T08:48:41.048Z,99.99
2018-05-11T08:49:41.036Z,99.99
2018-05-11T08:50:41.291Z,99.99
2018-05-11T08:51:41.286Z,99.99
2018-05-11T08:52:41.007Z,99.99
2018-05-11T08:53:41.262Z,99.99
2018-05-11T08:54:41.267Z,99.99
2018-05-11T08:55:40.977Z,99.99
2018-05-11T08:56:41.232Z,99.99
2018-05-11T08:57:41.224Z,99.99
2018-05-11T08:58:41.211Z,99.99
2018-05-11T08:59:40.941Z,99.99
2018-05-11T09:00:41.199Z,99.99
2018-05-11T09:01:41.188Z,99.99
2018-05-11T09:02:41.184Z,99.99
2018-05-11T09:03:40.904Z,99.99
2018-05-11T09:04:41.108Z,99.99
2018-05-11T09:05:41.152Z,99.99
2018-05-11T09:06:41.152Z,99.99
2018-05-11T09:07:40.868Z,99.99
2018-05-11T09:08:40.954Z,99.99
2018-05-11T09:09:41.124Z,99.99
2018-05-11T09:10:41.107Z,99.99
2018-05-11T09:11:40.824Z,99.99
2018-05-11T09:12:41.082Z,99.99
2018-05-11T09:13:41.083Z,99.99
2018-05-11T09:14:41.062Z,99.99
2018-05-11T09:15:40.795Z,99.99
2018-05-11T09:16:40.780Z,99.99
2018-05-11T09:17:40.767Z,99.99
2018-05-11T09:18:41.020Z,99.99
2018-05-11T09:19:40.748Z,99.99
2018-05-11T09:20:41.004Z,99.99
2018-05-11T09:21:41.021Z,99.99
2018-05-11T09:22:40.981Z,99.99
2018-05-11T09:23:40.706Z,99.99
2018-05-11T09:24:40.967Z,99.99
2018-05-11T09:25:40.962Z,99.99
2018-05-11T09:26:40.948Z,99.99
2018-05-11T09:27:40.936Z,99.99
2018-05-11T09:28:40.929Z,99.99
2018-05-11T09:29:40.916Z,99.99
2018-05-11T09:30:40.920Z,99.99
2018-05-11T09:31:40.633Z,99.99
2018-05-11T09:32:40.888Z,99.99
2018-05-11T09:33:40.881Z,99.99
2018-05-11T09:34:40.602Z,99.99
2018-05-11T09:35:40.594Z,99.99
2018-05-11T09:36:40.897Z,99.99
2018-05-11T09:37:40.839Z,99.99
2018-05-11T09:38:40.835Z,99.99
2018-05-11T09:39:40.659Z,99.99
2018-05-11T09:40:40.549Z,99.99
2018-05-11T09:41:40.807Z,99.99
2018-05-11T09:42:40.804Z,99.99
2018-05-11T09:43:40.521Z,99.99
2018-05-11T09:44:40.515Z,99.99
2018-05-11T09:45:40.505Z,99.99
2018-05-11T09:46:40.496Z,99.99
2018-05-11T09:47:40.752Z,99.99
2018-05-11T09:48:40.754Z,99.99
2018-05-11T09:49:40.739Z,99.99
2018-05-11T09:50:40.725Z,99.99
2018-05-11T09:51:40.724Z,99.99
2018-05-11T09:52:40.721Z,99.99
2018-05-11T09:53:40.438Z,99.99
2018-05-11T09:54:40.691Z,99.99
2018-05-11T09:55:40.415Z,99.99
2018-05-11T09:56:40.674Z,99.99
2018-05-11T09:57:40.402Z,99.99
2018-05-11T09:58:40.658Z,99.99
2018-05-11T09:59:40.386Z,99.99
2018-05-11T10:00:40.709Z,99.99
2018-05-11T10:01:40.770Z,99.99
2018-05-11T10:02:40.358Z,99.99
2018-05-11T10:03:40.619Z,99.99
2018-05-11T10:04:40.608Z,99.99
2018-05-11T10:05:40.337Z,99.99
2018-05-11T10:06:40.594Z,99.99
2018-05-11T10:07:40.788Z,99.99
2018-05-11T10:08:40.312Z,99.99
2018-05-11T10:09:40.303Z,99.99
2018-05-11T10:10:40.295Z,99.99
2018-05-11T10:11:40.561Z,99.99
2018-05-11T10:12:40.283Z,99.99
2018-05-11T10:13:40.535Z,99.99
2018-05-11T10:14:40.529Z,99.99
2018-05-11T10:15:40.525Z,99.99
2018-05-11T10:16:40.520Z,99.99
2018-05-11T10:17:40.513Z,99.99
2018-05-11T10:18:40.502Z,99.99
2018-05-11T10:19:40.490Z,99.99
2018-05-11T10:20:40.486Z,99.99
2018-05-11T10:21:40.209Z,99.99
2018-05-11T10:22:40.219Z,99.99
2018-05-11T10:23:40.466Z,99.99
2018-05-11T10:24:40.193Z,99.99
2018-05-11T10:25:40.445Z,99.99
2018-05-11T10:26:40.440Z,99.99
2018-05-11T10:27:40.442Z,97.62
2018-05-11T10:28:40.172Z,96.17
2018-05-11T10:29:40.432Z,96.17
2018-05-11T10:30:40.434Z,91.07
2018-05-11T10:31:40.427Z,89.09
2018-05-11T10:32:40.148Z,87.4
2018-05-11T10:33:40.418Z,85.52
2018-05-11T10:34:40.415Z,83.73
2018-05-11T10:35:40.143Z,82.51
2018-05-11T10:36:40.139Z,82.03
2018-05-11T10:37:40.142Z,82.76
2018-05-11T10:38:40.144Z,81.35
2018-05-11T10:39:40.408Z,78.69
2018-05-11T10:40:40.416Z,75.06
2018-05-11T10:41:40.398Z,73.07
2018-05-11T10:42:40.395Z,72.68
2018-05-11T10:43:40.403Z,73.16
2018-05-11T10:44:40.397Z,70.68
2018-05-11T10:45:40.396Z,72.36
2018-05-11T10:46:40.399Z,70.56
2018-05-11T10:47:40.134Z,70.31
2018-05-11T10:48:40.467Z,69.47
2018-05-11T10:49:40.406Z,64.14
2018-05-11T10:50:40.401Z,64.5
2018-05-11T10:51:40.410Z,66.17
2018-05-11T10:52:40.411Z,68.52
2018-05-11T10:53:40.415Z,69.2
2018-05-11T10:54:40.410Z,70.1
2018-05-11T10:55:40.417Z,70.53
2018-05-11T10:56:40.422Z,68.95
2018-05-11T10:57:40.428Z,65.5
2018-05-11T10:58:40.163Z,65.79
2018-05-11T10:59:40.168Z,65.24
2018-05-11T11:00:40.167Z,66.5
2018-05-11T11:01:40.166Z,64.01
2018-05-11T11:02:40.172Z,65.17
2018-05-11T11:03:40.443Z,63.13
2018-05-11T11:04:40.179Z,66.08
2018-05-11T11:05:40.448Z,62.49
2018-05-11T11:06:40.190Z,62.42
2018-05-11T11:07:40.195Z,60.38
2018-05-11T11:08:40.463Z,64.53
2018-05-11T11:09:40.469Z,61.65
2018-05-11T11:10:40.473Z,61.65
2018-05-11T11:11:40.206Z,62.42
2018-05-11T11:12:40.483Z,60.28
2018-05-11T11:13:40.678Z,61.16
2018-05-11T11:14:40.485Z,60.58
2018-05-11T11:15:40.488Z,61.74
2018-05-11T11:16:40.230Z,59.92
2018-05-11T11:17:40.235Z,58.95
2018-05-11T11:18:40.504Z,58.8
2018-05-11T11:19:40.510Z,59.97
2018-05-11T11:20:40.510Z,61.58
2018-05-11T11:21:40.255Z,62.33
2018-05-11T11:22:40.527Z,63.53
2018-05-11T11:23:40.259Z,61.1
2018-05-11T11:24:40.532Z,62.62
2018-05-11T11:25:40.275Z,62.52
2018-05-11T11:26:40.277Z,61.17
2018-05-11T11:27:40.546Z,64.17
2018-05-11T11:28:40.635Z,64.95
2018-05-11T11:29:40.291Z,63.33
2018-05-11T11:30:40.560Z,60.25
2018-05-11T11:31:40.565Z,57.67
2018-05-11T11:32:40.568Z,58.47
2018-05-11T11:33:40.645Z,58.86
2018-05-11T11:34:40.780Z,53.74
2018-05-11T11:35:40.321Z,55.79
2018-05-11T11:36:40.325Z,56.93
2018-05-11T11:37:40.671Z,58.62
2018-05-11T11:38:40.612Z,60.72
2018-05-11T11:39:40.343Z,60.94
2018-05-11T11:40:40.607Z,60.32
2018-05-11T11:41:40.347Z,58.9
2018-05-11T11:42:40.353Z,59.05
2018-05-11T11:43:40.633Z,57.14
2018-05-11T11:44:40.631Z,54.15
2018-05-11T11:45:40.635Z,54.54
2018-05-11T11:46:40.641Z,55.51
2018-05-11T11:47:40.380Z,52.98
2018-05-11T11:48:40.385Z,52.86
2018-05-11T11:49:40.394Z,54.94
2018-05-11T11:50:40.656Z,57.54
2018-05-11T11:51:40.664Z,54.56
2018-05-11T11:52:40.669Z,54.75
2018-05-11T11:53:40.410Z,57.8
2018-05-11T11:54:40.419Z,55.99
2018-05-11T11:55:40.716Z,57.67
2018-05-11T11:56:40.698Z,54.58
2018-05-11T11:57:40.432Z,51.5
2018-05-11T11:58:40.706Z,54.52
2018-05-11T11:59:40.442Z,57.23
2018-05-11T12:00:40.451Z,53.89
2018-05-11T12:01:40.471Z,54.86
2018-05-11T12:02:40.729Z,53.81
2018-05-11T12:03:40.729Z,56.25
2018-05-11T12:04:40.735Z,52.87
2018-05-11T12:05:40.481Z,51.21
2018-05-11T12:06:40.754Z,52.06
2018-05-11T12:07:40.957Z,53.81
2018-05-11T12:08:40.759Z,53.72
2018-05-11T12:09:40.768Z,52.36
2018-05-11T12:10:40.510Z,54.21
2018-05-11T12:11:40.515Z,54.3
2018-05-11T12:12:40.788Z,53.28
2018-05-11T12:13:40.528Z,53.52
2018-05-11T12:14:40.800Z,53.61
2018-05-11T12:15:40.804Z,55.41
2018-05-11T12:16:40.547Z,54.72
2018-05-11T12:17:40.554Z,54.34
2018-05-11T12:18:40.828Z,54.36
2018-05-11T12:19:40.836Z,55.92
2018-05-11T12:20:40.833Z,56.52
2018-05-11T12:21:40.844Z,57.5
2018-05-11T12:22:40.585Z,55.03
2018-05-11T12:23:40.857Z,55.35
2018-05-11T12:24:40.867Z,55.66
2018-05-11T12:25:40.606Z,54.11
2018-05-11T12:26:40.874Z,54.76
2018-05-11T12:27:40.883Z,55.9
2018-05-11T12:28:40.621Z,56.81
2018-05-11T12:29:40.892Z,54.57
2018-05-11T12:30:40.896Z,54.96
2018-05-11T12:31:40.643Z,54.66
2018-05-11T12:32:40.911Z,54.6
2018-05-11T12:33:40.650Z,54.52
2018-05-11T12:34:40.921Z,52.22
2018-05-11T12:35:40.661Z,50.36
2018-05-11T12:36:40.665Z,49.66
2018-05-11T12:37:40.669Z,49.27
2018-05-11T12:38:40.943Z,49.37
2018-05-11T12:39:40.685Z,51.51
2018-05-11T12:40:40.962Z,51.21
2018-05-11T12:41:40.699Z,52.22
2018-05-11T12:42:40.967Z,54.06
2018-05-11T12:43:40.714Z,53.89
2018-05-11T12:44:40.975Z,54.41
2018-05-11T12:45:40.720Z,50.51
2018-05-11T12:46:41.086Z,51.68
2018-05-11T12:47:40.997Z,53.5
2018-05-11T12:48:41.005Z,55.65
2018-05-11T12:49:41.012Z,51.78
2018-05-11T12:50:40.748Z,52.63
2018-05-11T12:51:41.015Z,50.02
2018-05-11T12:52:40.757Z,51.78
2018-05-11T12:53:41.033Z,50.21
2018-05-11T12:54:40.774Z,50.8
2018-05-11T12:55:40.781Z,52.34